sensor_id;sensor_type;location;lat;lon;timestamp;P1;durP1;ratioP1;P2;durP2;ratioP2
68989;SDS011;56046;47.270;11.368;2022-07-22T00:00:03;18.08;;;11.30;;
68989;SDS011;56046;47.270;11.368;2022-07-22T00:02:29;17.03;;;11.20;;
68989;SDS011;56046;47.270;11.368;2022-07-22T00:04:55;17.40;;;10.67;;
68989;SDS011;56046;47.270;11.368;2022-07-22T00:07:20;15.90;;;10.53;;
68989;SDS011;56046;47.270;11.368;2022-07-22T00:09:45;17.50;;;10.57;;
68989;SDS011;56046;47.270;11.368;2022-07-22T00:12:10;17.90;;;10.73;;
68989;SDS011;56046;47.270;11.368;2022-07-22T00:14:36;17.13;;;11.07;;
68989;SDS011;56046;47.270;11.368;2022-07-22T00:17:01;15.57;;;11.00;;
68989;SDS011;56046;47.270;11.368;2022-07-22T00:19:26;15.40;;;10.63;;
68989;SDS011;56046;47.270;11.368;2022-07-22T00:21:51;16.70;;;10.77;;
68989;SDS011;56046;47.270;11.368;2022-07-22T00:24:17;15.90;;;11.03;;
68989;SDS011;56046;47.270;11.368;2022-07-22T00:26:42;16.60;;;11.27;;
68989;SDS011;56046;47.270;11.368;2022-07-22T00:29:08;16.77;;;11.43;;
68989;SDS011;56046;47.270;11.368;2022-07-22T00:31:33;16.40;;;10.57;;
68989;SDS011;56046;47.270;11.368;2022-07-22T00:33:59;17.33;;;11.27;;
68989;SDS011;56046;47.270;11.368;2022-07-22T00:36:26;15.18;;;10.55;;
68989;SDS011;56046;47.270;11.368;2022-07-22T00:38:51;20.07;;;10.90;;
68989;SDS011;56046;47.270;11.368;2022-07-22T00:41:16;17.20;;;10.27;;
68989;SDS011;56046;47.270;11.368;2022-07-22T00:43:55;17.20;;;10.87;;
68989;SDS011;56046;47.270;11.368;2022-07-22T00:46:22;15.98;;;10.50;;
68989;SDS011;56046;47.270;11.368;2022-07-22T00:48:48;19.05;;;11.40;;
68989;SDS011;56046;47.270;11.368;2022-07-22T00:51:14;17.93;;;11.40;;
68989;SDS011;56046;47.270;11.368;2022-07-22T00:53:39;15.40;;;10.53;;
68989;SDS011;56046;47.270;11.368;2022-07-22T00:56:04;17.40;;;10.97;;
68989;SDS011;56046;47.270;11.368;2022-07-22T00:58:30;18.35;;;11.23;;
68989;SDS011;56046;47.270;11.368;2022-07-22T01:00:55;18.13;;;10.60;;
68989;SDS011;56046;47.270;11.368;2022-07-22T01:03:21;17.40;;;11.23;;
68989;SDS011;56046;47.270;11.368;2022-07-22T01:05:46;15.80;;;11.23;;
68989;SDS011;56046;47.270;11.368;2022-07-22T01:08:11;19.37;;;11.23;;
68989;SDS011;56046;47.270;11.368;2022-07-22T01:10:36;23.17;;;12.17;;
68989;SDS011;56046;47.270;11.368;2022-07-22T01:13:02;17.37;;;12.47;;
68989;SDS011;56046;47.270;11.368;2022-07-22T01:15:27;20.03;;;12.17;;
68989;SDS011;56046;47.270;11.368;2022-07-22T01:17:52;18.37;;;11.37;;
68989;SDS011;56046;47.270;11.368;2022-07-22T01:20:17;17.57;;;10.97;;
68989;SDS011;56046;47.270;11.368;2022-07-22T01:22:43;18.83;;;10.63;;
68989;SDS011;56046;47.270;11.368;2022-07-22T01:25:09;16.42;;;10.90;;
68989;SDS011;56046;47.270;11.368;2022-07-22T01:27:35;17.37;;;10.40;;
68989;SDS011;56046;47.270;11.368;2022-07-22T01:30:00;19.10;;;11.97;;
68989;SDS011;56046;47.270;11.368;2022-07-22T01:32:25;19.47;;;11.33;;
68989;SDS011;56046;47.270;11.368;2022-07-22T01:34:51;19.60;;;11.93;;
68989;SDS011;56046;47.270;11.368;2022-07-22T01:37:16;18.53;;;11.87;;
68989;SDS011;56046;47.270;11.368;2022-07-22T01:39:41;19.20;;;11.53;;
68989;SDS011;56046;47.270;11.368;2022-07-22T01:42:07;19.17;;;11.47;;
68989;SDS011;56046;47.270;11.368;2022-07-22T01:44:32;17.27;;;10.83;;
68989;SDS011;56046;47.270;11.368;2022-07-22T01:46:57;19.70;;;11.57;;
68989;SDS011;56046;47.270;11.368;2022-07-22T01:49:23;17.90;;;12.00;;
68989;SDS011;56046;47.270;11.368;2022-07-22T01:51:49;19.23;;;11.77;;
68989;SDS011;56046;47.270;11.368;2022-07-22T01:54:14;19.37;;;12.20;;
68989;SDS011;56046;47.270;11.368;2022-07-22T01:56:39;18.77;;;10.90;;
68989;SDS011;56046;47.270;11.368;2022-07-22T01:59:04;22.30;;;12.50;;
68989;SDS011;56046;47.270;11.368;2022-07-22T02:01:30;19.07;;;11.70;;
68989;SDS011;56046;47.270;11.368;2022-07-22T02:03:55;20.13;;;12.07;;
68989;SDS011;56046;47.270;11.368;2022-07-22T02:06:21;21.47;;;11.57;;
68989;SDS011;56046;47.270;11.368;2022-07-22T02:08:46;19.57;;;11.67;;
68989;SDS011;56046;47.270;11.368;2022-07-22T02:11:11;20.33;;;12.47;;
68989;SDS011;56046;47.270;11.368;2022-07-22T02:13:36;17.57;;;12.23;;
68989;SDS011;56046;47.270;11.368;2022-07-22T02:16:02;18.63;;;11.90;;
68989;SDS011;56046;47.270;11.368;2022-07-22T02:18:27;20.23;;;12.47;;
68989;SDS011;56046;47.270;11.368;2022-07-22T02:20:52;19.23;;;11.40;;
68989;SDS011;56046;47.270;11.368;2022-07-22T02:23:18;18.27;;;11.40;;
68989;SDS011;56046;47.270;11.368;2022-07-22T02:25:43;22.73;;;12.80;;
68989;SDS011;56046;47.270;11.368;2022-07-22T02:28:09;18.27;;;11.70;;
68989;SDS011;56046;47.270;11.368;2022-07-22T02:30:34;20.43;;;12.70;;
68989;SDS011;56046;47.270;11.368;2022-07-22T02:32:59;17.93;;;11.87;;
68989;SDS011;56046;47.270;11.368;2022-07-22T02:35:24;18.37;;;11.67;;
68989;SDS011;56046;47.270;11.368;2022-07-22T02:37:50;19.30;;;11.83;;
68989;SDS011;56046;47.270;11.368;2022-07-22T02:40:15;21.80;;;11.83;;
68989;SDS011;56046;47.270;11.368;2022-07-22T02:42:40;19.53;;;12.13;;
68989;SDS011;56046;47.270;11.368;2022-07-22T02:45:06;18.00;;;12.27;;
68989;SDS011;56046;47.270;11.368;2022-07-22T02:47:31;20.33;;;12.25;;
68989;SDS011;56046;47.270;11.368;2022-07-22T02:49:56;19.50;;;12.30;;
68989;SDS011;56046;47.270;11.368;2022-07-22T02:52:22;21.93;;;13.33;;
68989;SDS011;56046;47.270;11.368;2022-07-22T02:54:47;21.33;;;13.70;;
68989;SDS011;56046;47.270;11.368;2022-07-22T02:57:12;23.50;;;14.23;;
68989;SDS011;56046;47.270;11.368;2022-07-22T02:59:37;20.60;;;13.23;;
68989;SDS011;56046;47.270;11.368;2022-07-22T03:02:03;24.20;;;13.30;;
68989;SDS011;56046;47.270;11.368;2022-07-22T03:04:28;21.35;;;12.90;;
68989;SDS011;56046;47.270;11.368;2022-07-22T03:06:54;20.87;;;12.63;;
68989;SDS011;56046;47.270;11.368;2022-07-22T03:09:19;21.87;;;14.17;;
68989;SDS011;56046;47.270;11.368;2022-07-22T03:11:44;21.90;;;13.70;;
68989;SDS011;56046;47.270;11.368;2022-07-22T03:14:09;19.13;;;12.63;;
68989;SDS011;56046;47.270;11.368;2022-07-22T03:16:35;23.25;;;13.45;;
68989;SDS011;56046;47.270;11.368;2022-07-22T03:19:00;21.37;;;13.00;;
68989;SDS011;56046;47.270;11.368;2022-07-22T03:21:25;20.83;;;12.60;;
68989;SDS011;56046;47.270;11.368;2022-07-22T03:23:51;20.73;;;13.27;;
68989;SDS011;56046;47.270;11.368;2022-07-22T03:26:19;23.05;;;14.10;;
68989;SDS011;56046;47.270;11.368;2022-07-22T03:28:44;21.83;;;14.03;;
68989;SDS011;56046;47.270;11.368;2022-07-22T03:31:09;24.47;;;14.40;;
68989;SDS011;56046;47.270;11.368;2022-07-22T03:33:34;25.40;;;15.43;;
68989;SDS011;56046;47.270;11.368;2022-07-22T03:36:00;22.10;;;13.90;;
68989;SDS011;56046;47.270;11.368;2022-07-22T03:38:25;24.17;;;13.93;;
68989;SDS011;56046;47.270;11.368;2022-07-22T03:40:50;19.97;;;13.30;;
68989;SDS011;56046;47.270;11.368;2022-07-22T03:43:15;20.63;;;13.17;;
68989;SDS011;56046;47.270;11.368;2022-07-22T03:45:41;20.87;;;13.20;;
68989;SDS011;56046;47.270;11.368;2022-07-22T03:48:06;25.83;;;13.47;;
68989;SDS011;56046;47.270;11.368;2022-07-22T03:50:31;21.47;;;12.77;;
68989;SDS011;56046;47.270;11.368;2022-07-22T03:52:56;21.00;;;13.80;;
68989;SDS011;56046;47.270;11.368;2022-07-22T03:55:22;21.57;;;12.73;;
68989;SDS011;56046;47.270;11.368;2022-07-22T03:57:47;20.40;;;13.27;;
68989;SDS011;56046;47.270;11.368;2022-07-22T04:00:12;20.27;;;13.03;;
68989;SDS011;56046;47.270;11.368;2022-07-22T04:02:37;22.17;;;13.67;;
68989;SDS011;56046;47.270;11.368;2022-07-22T04:05:03;18.83;;;12.60;;
68989;SDS011;56046;47.270;11.368;2022-07-22T04:07:28;17.90;;;11.93;;
68989;SDS011;56046;47.270;11.368;2022-07-22T04:09:53;23.17;;;14.43;;
68989;SDS011;56046;47.270;11.368;2022-07-22T04:12:30;21.52;;;13.93;;
68989;SDS011;56046;47.270;11.368;2022-07-22T04:14:55;20.92;;;13.55;;
68989;SDS011;56046;47.270;11.368;2022-07-22T04:17:20;20.77;;;12.47;;
68989;SDS011;56046;47.270;11.368;2022-07-22T04:19:46;20.47;;;13.23;;
68989;SDS011;56046;47.270;11.368;2022-07-22T04:22:11;22.17;;;13.43;;
68989;SDS011;56046;47.270;11.368;2022-07-22T04:24:36;21.33;;;12.97;;
68989;SDS011;56046;47.270;11.368;2022-07-22T04:27:01;20.17;;;13.00;;
68989;SDS011;56046;47.270;11.368;2022-07-22T04:29:27;22.80;;;13.07;;
68989;SDS011;56046;47.270;11.368;2022-07-22T04:31:52;19.87;;;12.30;;
68989;SDS011;56046;47.270;11.368;2022-07-22T04:34:17;18.93;;;12.30;;
68989;SDS011;56046;47.270;11.368;2022-07-22T04:36:43;20.58;;;12.93;;
68989;SDS011;56046;47.270;11.368;2022-07-22T04:39:08;18.57;;;12.10;;
68989;SDS011;56046;47.270;11.368;2022-07-22T04:41:33;19.07;;;12.10;;
68989;SDS011;56046;47.270;11.368;2022-07-22T04:43:58;17.83;;;11.87;;
68989;SDS011;56046;47.270;11.368;2022-07-22T04:46:24;18.80;;;12.20;;
68989;SDS011;56046;47.270;11.368;2022-07-22T04:48:49;18.90;;;12.20;;
68989;SDS011;56046;47.270;11.368;2022-07-22T04:51:14;20.43;;;12.43;;
68989;SDS011;56046;47.270;11.368;2022-07-22T04:53:39;17.67;;;11.80;;
68989;SDS011;56046;47.270;11.368;2022-07-22T04:56:05;17.03;;;11.37;;
68989;SDS011;56046;47.270;11.368;2022-07-22T04:58:30;17.90;;;11.63;;
68989;SDS011;56046;47.270;11.368;2022-07-22T05:00:55;20.20;;;11.80;;
68989;SDS011;56046;47.270;11.368;2022-07-22T05:03:21;19.13;;;11.90;;
68989;SDS011;56046;47.270;11.368;2022-07-22T05:05:46;19.77;;;12.20;;
68989;SDS011;56046;47.270;11.368;2022-07-22T05:08:11;15.30;;;11.53;;
68989;SDS011;56046;47.270;11.368;2022-07-22T05:10:37;17.73;;;12.17;;
68989;SDS011;56046;47.270;11.368;2022-07-22T05:13:02;16.17;;;11.43;;
68989;SDS011;56046;47.270;11.368;2022-07-22T05:15:27;18.83;;;12.53;;
68989;SDS011;56046;47.270;11.368;2022-07-22T05:17:52;22.33;;;12.60;;
68989;SDS011;56046;47.270;11.368;2022-07-22T05:20:18;17.80;;;11.90;;
68989;SDS011;56046;47.270;11.368;2022-07-22T05:22:43;17.83;;;12.57;;
68989;SDS011;56046;47.270;11.368;2022-07-22T05:25:08;17.90;;;11.73;;
68989;SDS011;56046;47.270;11.368;2022-07-22T05:27:33;17.90;;;12.37;;
68989;SDS011;56046;47.270;11.368;2022-07-22T05:29:59;17.00;;;11.40;;
68989;SDS011;56046;47.270;11.368;2022-07-22T05:32:24;18.10;;;11.57;;
68989;SDS011;56046;47.270;11.368;2022-07-22T05:34:49;16.10;;;11.63;;
68989;SDS011;56046;47.270;11.368;2022-07-22T05:37:14;15.87;;;11.63;;
68989;SDS011;56046;47.270;11.368;2022-07-22T05:39:41;15.50;;;11.38;;
68989;SDS011;56046;47.270;11.368;2022-07-22T05:42:06;17.50;;;11.73;;
68989;SDS011;56046;47.270;11.368;2022-07-22T05:44:31;17.92;;;11.57;;
68989;SDS011;56046;47.270;11.368;2022-07-22T05:46:57;15.77;;;11.73;;
68989;SDS011;56046;47.270;11.368;2022-07-22T05:49:22;18.63;;;11.40;;
68989;SDS011;56046;47.270;11.368;2022-07-22T05:51:49;17.23;;;12.05;;
68989;SDS011;56046;47.270;11.368;2022-07-22T05:54:15;18.13;;;12.53;;
68989;SDS011;56046;47.270;11.368;2022-07-22T05:56:40;16.40;;;11.47;;
68989;SDS011;56046;47.270;11.368;2022-07-22T05:59:05;17.07;;;11.53;;
68989;SDS011;56046;47.270;11.368;2022-07-22T06:01:30;17.43;;;12.70;;
68989;SDS011;56046;47.270;11.368;2022-07-22T06:03:55;19.00;;;12.40;;
68989;SDS011;56046;47.270;11.368;2022-07-22T06:06:21;16.27;;;11.30;;
68989;SDS011;56046;47.270;11.368;2022-07-22T06:08:46;16.37;;;12.37;;
68989;SDS011;56046;47.270;11.368;2022-07-22T06:11:11;18.53;;;13.10;;
68989;SDS011;56046;47.270;11.368;2022-07-22T06:13:37;16.38;;;12.10;;
68989;SDS011;56046;47.270;11.368;2022-07-22T06:16:02;17.53;;;12.37;;
68989;SDS011;56046;47.270;11.368;2022-07-22T06:18:28;16.97;;;12.40;;
68989;SDS011;56046;47.270;11.368;2022-07-22T06:20:53;18.33;;;12.70;;
68989;SDS011;56046;47.270;11.368;2022-07-22T06:23:18;15.85;;;12.05;;
68989;SDS011;56046;47.270;11.368;2022-07-22T06:25:44;19.33;;;13.53;;
68989;SDS011;56046;47.270;11.368;2022-07-22T06:28:09;19.37;;;12.13;;
68989;SDS011;56046;47.270;11.368;2022-07-22T06:30:35;18.23;;;12.73;;
68989;SDS011;56046;47.270;11.368;2022-07-22T06:33:00;18.90;;;13.35;;
68989;SDS011;56046;47.270;11.368;2022-07-22T06:35:25;16.90;;;12.40;;
68989;SDS011;56046;47.270;11.368;2022-07-22T06:37:51;16.40;;;12.40;;
68989;SDS011;56046;47.270;11.368;2022-07-22T06:40:16;19.23;;;13.07;;
68989;SDS011;56046;47.270;11.368;2022-07-22T06:42:41;18.63;;;12.43;;
68989;SDS011;56046;47.270;11.368;2022-07-22T06:45:07;17.07;;;12.10;;
68989;SDS011;56046;47.270;11.368;2022-07-22T06:47:32;17.83;;;13.45;;
68989;SDS011;56046;47.270;11.368;2022-07-22T06:50:00;18.63;;;12.73;;
68989;SDS011;56046;47.270;11.368;2022-07-22T06:52:25;18.45;;;13.35;;
68989;SDS011;56046;47.270;11.368;2022-07-22T06:54:51;16.63;;;12.65;;
68989;SDS011;56046;47.270;11.368;2022-07-22T06:57:17;19.77;;;13.07;;
68989;SDS011;56046;47.270;11.368;2022-07-22T06:59:42;16.77;;;12.93;;
68989;SDS011;56046;47.270;11.368;2022-07-22T07:02:07;18.87;;;12.83;;
68989;SDS011;56046;47.270;11.368;2022-07-22T07:04:33;19.25;;;12.88;;
68989;SDS011;56046;47.270;11.368;2022-07-22T07:06:58;16.97;;;12.80;;
68989;SDS011;56046;47.270;11.368;2022-07-22T07:09:24;16.10;;;11.97;;
68989;SDS011;56046;47.270;11.368;2022-07-22T07:11:49;17.37;;;12.20;;
68989;SDS011;56046;47.270;11.368;2022-07-22T07:14:14;17.90;;;11.67;;
68989;SDS011;56046;47.270;11.368;2022-07-22T07:16:40;18.00;;;13.10;;
68989;SDS011;56046;47.270;11.368;2022-07-22T07:19:05;16.77;;;11.85;;
68989;SDS011;56046;47.270;11.368;2022-07-22T07:21:30;17.30;;;12.50;;
68989;SDS011;56046;47.270;11.368;2022-07-22T07:23:55;17.53;;;12.23;;
68989;SDS011;56046;47.270;11.368;2022-07-22T07:26:21;19.47;;;13.00;;
68989;SDS011;56046;47.270;11.368;2022-07-22T07:28:46;15.43;;;11.70;;
68989;SDS011;56046;47.270;11.368;2022-07-22T07:31:11;17.23;;;13.43;;
68989;SDS011;56046;47.270;11.368;2022-07-22T07:33:37;16.52;;;12.50;;
68989;SDS011;56046;47.270;11.368;2022-07-22T07:36:02;15.93;;;12.10;;
68989;SDS011;56046;47.270;11.368;2022-07-22T07:38:27;17.23;;;12.10;;
68989;SDS011;56046;47.270;11.368;2022-07-22T07:40:53;21.50;;;12.23;;
68989;SDS011;56046;47.270;11.368;2022-07-22T07:43:18;18.17;;;13.90;;
68989;SDS011;56046;47.270;11.368;2022-07-22T07:45:43;17.40;;;11.57;;
68989;SDS011;56046;47.270;11.368;2022-07-22T07:48:08;17.23;;;12.17;;
68989;SDS011;56046;47.270;11.368;2022-07-22T07:50:34;18.98;;;12.48;;
68989;SDS011;56046;47.270;11.368;2022-07-22T07:53:00;16.43;;;12.27;;
68989;SDS011;56046;47.270;11.368;2022-07-22T07:55:25;19.07;;;12.10;;
68989;SDS011;56046;47.270;11.368;2022-07-22T07:57:50;17.63;;;12.97;;
68989;SDS011;56046;47.270;11.368;2022-07-22T08:00:17;15.90;;;12.40;;
68989;SDS011;56046;47.270;11.368;2022-07-22T08:02:42;16.07;;;11.30;;
68989;SDS011;56046;47.270;11.368;2022-07-22T08:05:08;19.05;;;13.45;;
68989;SDS011;56046;47.270;11.368;2022-07-22T08:07:34;16.52;;;12.48;;
68989;SDS011;56046;47.270;11.368;2022-07-22T08:09:59;15.70;;;11.70;;
68989;SDS011;56046;47.270;11.368;2022-07-22T08:12:24;15.63;;;11.53;;
68989;SDS011;56046;47.270;11.368;2022-07-22T08:14:50;16.73;;;12.30;;
68989;SDS011;56046;47.270;11.368;2022-07-22T08:17:15;17.13;;;12.50;;
68989;SDS011;56046;47.270;11.368;2022-07-22T08:19:40;18.50;;;12.23;;
68989;SDS011;56046;47.270;11.368;2022-07-22T08:22:05;19.97;;;12.43;;
68989;SDS011;56046;47.270;11.368;2022-07-22T08:24:31;18.63;;;12.90;;
68989;SDS011;56046;47.270;11.368;2022-07-22T08:26:56;16.17;;;12.00;;
68989;SDS011;56046;47.270;11.368;2022-07-22T08:29:22;16.07;;;11.73;;
68989;SDS011;56046;47.270;11.368;2022-07-22T08:31:47;16.67;;;12.67;;
68989;SDS011;56046;47.270;11.368;2022-07-22T08:34:12;16.93;;;12.60;;
68989;SDS011;56046;47.270;11.368;2022-07-22T08:36:38;18.57;;;12.10;;
68989;SDS011;56046;47.270;11.368;2022-07-22T08:39:03;18.35;;;12.45;;
68989;SDS011;56046;47.270;11.368;2022-07-22T08:41:29;15.83;;;11.77;;
68989;SDS011;56046;47.270;11.368;2022-07-22T08:43:58;17.65;;;11.82;;
68989;SDS011;56046;47.270;11.368;2022-07-22T08:46:23;14.90;;;11.07;;
68989;SDS011;56046;47.270;11.368;2022-07-22T08:48:49;13.90;;;10.77;;
68989;SDS011;56046;47.270;11.368;2022-07-22T08:51:14;17.60;;;11.53;;
68989;SDS011;56046;47.270;11.368;2022-07-22T08:53:39;16.80;;;12.73;;
68989;SDS011;56046;47.270;11.368;2022-07-22T08:56:04;16.73;;;10.87;;
68989;SDS011;56046;47.270;11.368;2022-07-22T08:58:30;16.63;;;12.52;;
68989;SDS011;56046;47.270;11.368;2022-07-22T09:01:12;15.80;;;11.57;;
68989;SDS011;56046;47.270;11.368;2022-07-22T09:03:46;15.63;;;13.17;;
68989;SDS011;56046;47.270;11.368;2022-07-22T09:06:11;18.05;;;11.60;;
68989;SDS011;56046;47.270;11.368;2022-07-22T09:11:34;15.77;;;11.90;;
68989;SDS011;56046;47.270;11.368;2022-07-22T09:14:00;17.53;;;12.87;;
68989;SDS011;56046;47.270;11.368;2022-07-22T09:19:06;14.73;;;12.30;;
68989;SDS011;56046;47.270;11.368;2022-07-22T09:21:32;15.63;;;12.47;;
68989;SDS011;56046;47.270;11.368;2022-07-22T09:23:57;18.48;;;12.52;;
68989;SDS011;56046;47.270;11.368;2022-07-22T09:26:32;17.30;;;12.97;;
68989;SDS011;56046;47.270;11.368;2022-07-22T09:28:58;15.80;;;12.32;;
68989;SDS011;56046;47.270;11.368;2022-07-22T09:31:25;15.60;;;12.43;;
68989;SDS011;56046;47.270;11.368;2022-07-22T09:33:50;16.13;;;13.05;;
68989;SDS011;56046;47.270;11.368;2022-07-22T09:36:18;16.02;;;12.13;;
68989;SDS011;56046;47.270;11.368;2022-07-22T09:38:44;14.97;;;11.97;;
68989;SDS011;56046;47.270;11.368;2022-07-22T09:41:09;17.13;;;12.50;;
68989;SDS011;56046;47.270;11.368;2022-07-22T09:43:34;15.83;;;12.33;;
68989;SDS011;56046;47.270;11.368;2022-07-22T09:46:00;15.95;;;13.10;;
68989;SDS011;56046;47.270;11.368;2022-07-22T09:48:26;18.90;;;12.63;;
68989;SDS011;56046;47.270;11.368;2022-07-22T09:50:52;16.87;;;13.60;;
68989;SDS011;56046;47.270;11.368;2022-07-22T09:53:19;15.93;;;13.23;;
68989;SDS011;56046;47.270;11.368;2022-07-22T09:55:45;15.90;;;12.98;;
68989;SDS011;56046;47.270;11.368;2022-07-22T09:58:10;15.73;;;12.90;;
68989;SDS011;56046;47.270;11.368;2022-07-22T10:00:36;19.07;;;12.97;;
68989;SDS011;56046;47.270;11.368;2022-07-22T10:03:04;16.92;;;12.18;;
68989;SDS011;56046;47.270;11.368;2022-07-22T10:05:30;16.38;;;13.00;;
68989;SDS011;56046;47.270;11.368;2022-07-22T10:07:56;15.98;;;12.15;;
68989;SDS011;56046;47.270;11.368;2022-07-22T10:10:23;16.17;;;12.33;;
68989;SDS011;56046;47.270;11.368;2022-07-22T10:12:49;16.52;;;12.50;;
68989;SDS011;56046;47.270;11.368;2022-07-22T10:15:15;15.38;;;11.80;;
68989;SDS011;56046;47.270;11.368;2022-07-22T10:17:41;15.20;;;12.27;;
68989;SDS011;56046;47.270;11.368;2022-07-22T10:20:07;16.20;;;11.77;;
68989;SDS011;56046;47.270;11.368;2022-07-22T10:25:05;15.57;;;11.98;;
68989;SDS011;56046;47.270;11.368;2022-07-22T10:27:43;14.50;;;12.30;;
68989;SDS011;56046;47.270;11.368;2022-07-22T10:30:09;15.70;;;11.67;;
68989;SDS011;56046;47.270;11.368;2022-07-22T10:32:34;15.87;;;10.63;;
68989;SDS011;56046;47.270;11.368;2022-07-22T10:40:19;16.27;;;12.23;;
68989;SDS011;56046;47.270;11.368;2022-07-22T10:45:22;15.25;;;12.20;;
68989;SDS011;56046;47.270;11.368;2022-07-22T10:48:00;14.50;;;10.83;;
68989;SDS011;56046;47.270;11.368;2022-07-22T10:53:00;14.50;;;12.98;;
68989;SDS011;56046;47.270;11.368;2022-07-22T10:55:26;17.33;;;12.07;;
68989;SDS011;56046;47.270;11.368;2022-07-22T10:57:51;15.23;;;12.17;;
68989;SDS011;56046;47.270;11.368;2022-07-22T11:00:16;14.40;;;11.67;;
68989;SDS011;56046;47.270;11.368;2022-07-22T11:02:42;15.17;;;12.70;;
68989;SDS011;56046;47.270;11.368;2022-07-22T11:05:07;17.67;;;12.60;;
68989;SDS011;56046;47.270;11.368;2022-07-22T11:07:33;14.88;;;12.90;;
68989;SDS011;56046;47.270;11.368;2022-07-22T11:12:54;17.03;;;12.33;;
68989;SDS011;56046;47.270;11.368;2022-07-22T11:15:19;14.33;;;11.83;;
68989;SDS011;56046;47.270;11.368;2022-07-22T11:17:49;15.40;;;12.85;;
68989;SDS011;56046;47.270;11.368;2022-07-22T11:20:15;16.00;;;12.73;;
68989;SDS011;56046;47.270;11.368;2022-07-22T11:22:40;15.53;;;12.00;;
68989;SDS011;56046;47.270;11.368;2022-07-22T11:25:06;15.27;;;12.37;;
68989;SDS011;56046;47.270;11.368;2022-07-22T11:27:32;13.63;;;11.52;;
68989;SDS011;56046;47.270;11.368;2022-07-22T11:29:57;14.23;;;11.33;;
68989;SDS011;56046;47.270;11.368;2022-07-22T11:32:26;14.93;;;12.00;;
68989;SDS011;56046;47.270;11.368;2022-07-22T11:34:56;15.32;;;12.23;;
68989;SDS011;56046;47.270;11.368;2022-07-22T11:37:22;15.80;;;12.65;;
68989;SDS011;56046;47.270;11.368;2022-07-22T11:39:48;14.35;;;11.13;;
68989;SDS011;56046;47.270;11.368;2022-07-22T11:42:13;15.13;;;11.80;;
68989;SDS011;56046;47.270;11.368;2022-07-22T11:44:39;14.83;;;11.33;;
68989;SDS011;56046;47.270;11.368;2022-07-22T11:47:04;15.43;;;11.23;;
68989;SDS011;56046;47.270;11.368;2022-07-22T11:49:31;14.43;;;11.23;;
68989;SDS011;56046;47.270;11.368;2022-07-22T11:51:58;16.60;;;11.80;;
68989;SDS011;56046;47.270;11.368;2022-07-22T11:54:24;14.48;;;11.43;;
68989;SDS011;56046;47.270;11.368;2022-07-22T11:56:49;13.20;;;10.93;;
68989;SDS011;56046;47.270;11.368;2022-07-22T11:59:15;14.70;;;11.90;;
68989;SDS011;56046;47.270;11.368;2022-07-22T12:01:43;15.18;;;10.73;;
68989;SDS011;56046;47.270;11.368;2022-07-22T12:04:09;13.77;;;10.77;;
68989;SDS011;56046;47.270;11.368;2022-07-22T12:06:36;13.87;;;11.73;;
68989;SDS011;56046;47.270;11.368;2022-07-22T12:09:07;13.90;;;10.38;;
68989;SDS011;56046;47.270;11.368;2022-07-22T12:11:34;14.82;;;11.27;;
68989;SDS011;56046;47.270;11.368;2022-07-22T12:16:31;12.57;;;10.82;;
68989;SDS011;56046;47.270;11.368;2022-07-22T12:19:01;14.67;;;10.43;;
68989;SDS011;56046;47.270;11.368;2022-07-22T12:21:31;14.52;;;10.77;;
68989;SDS011;56046;47.270;11.368;2022-07-22T12:23:59;14.70;;;11.48;;
68989;SDS011;56046;47.270;11.368;2022-07-22T12:29:21;13.23;;;10.88;;
68989;SDS011;56046;47.270;11.368;2022-07-22T12:31:51;12.38;;;10.48;;
68989;SDS011;56046;47.270;11.368;2022-07-22T12:34:17;13.05;;;9.88;;
68989;SDS011;56046;47.270;11.368;2022-07-22T12:36:43;12.50;;;9.60;;
68989;SDS011;56046;47.270;11.368;2022-07-22T12:39:15;14.68;;;10.32;;
68989;SDS011;56046;47.270;11.368;2022-07-22T12:41:44;12.68;;;10.50;;
68989;SDS011;56046;47.270;11.368;2022-07-22T12:44:17;10.18;;;8.85;;
68989;SDS011;56046;47.270;11.368;2022-07-22T12:46:49;12.07;;;9.88;;
68989;SDS011;56046;47.270;11.368;2022-07-22T12:49:15;12.07;;;10.02;;
68989;SDS011;56046;47.270;11.368;2022-07-22T12:51:41;10.95;;;9.50;;
68989;SDS011;56046;47.270;11.368;2022-07-22T12:54:06;10.77;;;8.87;;
68989;SDS011;56046;47.270;11.368;2022-07-22T12:56:31;12.90;;;10.43;;
68989;SDS011;56046;47.270;11.368;2022-07-22T12:58:58;10.18;;;8.98;;
68989;SDS011;56046;47.270;11.368;2022-07-22T13:01:23;11.70;;;10.10;;
68989;SDS011;56046;47.270;11.368;2022-07-22T13:03:49;13.07;;;9.67;;
68989;SDS011;56046;47.270;11.368;2022-07-22T13:06:14;12.87;;;8.80;;
68989;SDS011;56046;47.270;11.368;2022-07-22T13:08:40;12.43;;;9.82;;
68989;SDS011;56046;47.270;11.368;2022-07-22T13:11:05;10.63;;;9.13;;
68989;SDS011;56046;47.270;11.368;2022-07-22T13:13:31;12.45;;;9.30;;
68989;SDS011;56046;47.270;11.368;2022-07-22T13:15:56;12.20;;;8.13;;
68989;SDS011;56046;47.270;11.368;2022-07-22T13:18:21;12.33;;;9.30;;
68989;SDS011;56046;47.270;11.368;2022-07-22T13:20:47;11.77;;;8.37;;
68989;SDS011;56046;47.270;11.368;2022-07-22T13:23:12;11.53;;;9.53;;
68989;SDS011;56046;47.270;11.368;2022-07-22T13:25:37;12.50;;;9.88;;
68989;SDS011;56046;47.270;11.368;2022-07-22T13:28:03;12.20;;;8.77;;
68989;SDS011;56046;47.270;11.368;2022-07-22T13:30:28;12.90;;;9.30;;
68989;SDS011;56046;47.270;11.368;2022-07-22T13:32:53;13.43;;;8.90;;
68989;SDS011;56046;47.270;11.368;2022-07-22T13:35:19;11.27;;;9.20;;
68989;SDS011;56046;47.270;11.368;2022-07-22T13:37:44;10.15;;;7.88;;
68989;SDS011;56046;47.270;11.368;2022-07-22T13:40:10;9.37;;;8.37;;
68989;SDS011;56046;47.270;11.368;2022-07-22T13:42:35;10.30;;;7.80;;
68989;SDS011;56046;47.270;11.368;2022-07-22T13:45:01;11.10;;;8.93;;
68989;SDS011;56046;47.270;11.368;2022-07-22T13:47:26;10.27;;;8.50;;
68989;SDS011;56046;47.270;11.368;2022-07-22T13:49:52;10.60;;;8.63;;
68989;SDS011;56046;47.270;11.368;2022-07-22T13:52:17;10.35;;;8.80;;
68989;SDS011;56046;47.270;11.368;2022-07-22T13:54:43;10.40;;;8.73;;
68989;SDS011;56046;47.270;11.368;2022-07-22T13:57:09;12.73;;;8.83;;
68989;SDS011;56046;47.270;11.368;2022-07-22T13:59:34;12.67;;;8.93;;
68989;SDS011;56046;47.270;11.368;2022-07-22T14:02:00;10.40;;;8.73;;
68989;SDS011;56046;47.270;11.368;2022-07-22T14:04:26;10.10;;;8.60;;
68989;SDS011;56046;47.270;11.368;2022-07-22T14:06:51;10.40;;;8.50;;
68989;SDS011;56046;47.270;11.368;2022-07-22T14:09:17;11.70;;;9.53;;
68989;SDS011;56046;47.270;11.368;2022-07-22T14:11:43;9.02;;;7.55;;
68989;SDS011;56046;47.270;11.368;2022-07-22T14:14:08;11.43;;;7.93;;
68989;SDS011;56046;47.270;11.368;2022-07-22T14:16:34;10.90;;;8.00;;
68989;SDS011;56046;47.270;11.368;2022-07-22T14:19:10;12.05;;;8.20;;
68989;SDS011;56046;47.270;11.368;2022-07-22T14:21:36;13.80;;;9.15;;
68989;SDS011;56046;47.270;11.368;2022-07-22T14:24:02;11.93;;;8.23;;
68989;SDS011;56046;47.270;11.368;2022-07-22T14:26:27;11.53;;;9.17;;
68989;SDS011;56046;47.270;11.368;2022-07-22T14:28:53;9.65;;;8.55;;